SBPG/PNG METAR and TAF weather

Enter ICAO airport designator
Station Type Date Time Source
SBPG METAR 2024/04/17 21:00 UTC NOAA

SBPG 172100Z 28004KT 9999 SCT040 23/13 Q1017


Station Type Date Time Source
SBPG Decoded METAR 2024/04/17 21:00 UTC NOAA

Paranagua, Brazil (SBPG) 25-31S 048-31W
Apr 17, 2024 - 05:00 PM EDT / 2024.04.17 2100 UTC
Wind: from the W (280 degrees) at 5 MPH (4 KT):0
Visibility: greater than 7 mile(s):0
Sky conditions: partly cloudy
Temperature: 73 F (23 C)
Dew Point: 55 F (13 C)
Relative Humidity: 53%
Pressure (altimeter): 30.03 in. Hg (1017 hPa)
ob: SBPG 172100Z 28004KT 9999 SCT040 23/13 Q1017
cycle: 21

Station Type Date Time Source
SBPG TAF UTC NOAA

Error!

Example: see airport list